This is the latest recevied weather packets stored in our database for station/object N5ZKK. If no packets are shown the sender has not sent any weather packets the latest 10 day(s).
| Time | Temp. | Humidity | Pressure | Rain* | Wind** | Luminosity | Snow |
|---|---|---|---|---|---|---|---|
| 1777779327 | 11.67° C | 93% | 1024.6 hPa | 0 mm | - | - | - |
| 1777776340 | 12.78° C | 82% | 1024.1 hPa | 0 mm | - | - | - |
| 1777772137 | 17.78° C | 56% | 1023.1 hPa | 0 mm | - | - | - |
| 1777766719 | 23.33° C | 41% | 1022.7 hPa | 0 mm | - | - | - |
| 1777766115 | 23.89° C | 41% | 1022.7 hPa | 0 mm | - | - | - |
| 1777765524 | 23.33° C | 40% | 1022.7 hPa | 0 mm | - | - | - |
| 1777753532 | 22.78° C | 44% | 1024 hPa | 0 mm | - | - | - |
| 1777750545 | 23.89° C | 43% | 1024.3 hPa | 0 mm | - | - | - |
| 1777747518 | 22.22° C | 49% | 1024.8 hPa | 0 mm | - | - | - |
| 1777745745 | 22.22° C | 52% | 1025 hPa | 0 mm | - | - | - |
| 1777742121 | 21.67° C | 54% | 1025.6 hPa | 0 mm | - | - | - |
| 1777739749 | 20.56° C | 57% | 1025.8 hPa | 0 mm | - | - | - |
| 1777739126 | 20° C | 57% | 1025.8 hPa | 0 mm | - | - | - |
| 1777733118 | 17.78° C | 64% | 1025.6 hPa | 0 mm | - | - | - |
| 1777731325 | 16.67° C | 70% | 1025.4 hPa | 0 mm | - | - | - |
| 1777730130 | 15° C | 80% | 1025 hPa | 0 mm | - | - | - |
| 1777725927 | 7.78° C | 99% | 1024.1 hPa | 0 mm | - | - | - |
| 1777722921 | 6.11° C | 99% | 1023.5 hPa | 0 mm | - | - | - |
| 1777722322 | 6.11° C | 99% | 1023.3 hPa | 0 mm | - | - | - |
| 1777721745 | 6.11° C | 99% | 1023.3 hPa | 0 mm | - | - | - |
| 1777719315 | 6.11° C | 99% | 1023.2 hPa | 0 mm | - | - | - |
| 1777718717 | 6.11° C | 99% | 1023.2 hPa | 0 mm | - | - | - |
| 1777716326 | 7.22° C | 99% | 1022.7 hPa | 0 mm | - | - | - |
| 1777712722 | 7.78° C | 99% | 1021.9 hPa | 0 mm | - | - | - |
| 1777708517 | 7.22° C | 99% | 1021.1 hPa | 0 mm | - | - | - |
* Rain latest hour (hover to see other rain measurements)
** Current wind speed in m/s (hover to see current wind gust speed)